Latest Weather Observations for Proserpine

IDQ60801

Issued at 11:33 am EST Saturday 25 June 2016 (issued every 30 minutes, with the page automatically refreshed every 10 minutes)

About weather observations | Map of weather stations | Latest weather observations for QLD | Other Formats
Station Details ID: 033247 Name: PROSERPINE AIRPORT Lat: -20.49 Lon: 148.56 Height: 19.7 m
Data from the previous 72 hours. | See also: Recent months at Proserpine
Date/Time
EST
Temp
°C
App
Temp
°C
Dew
Point
°C
Rel
Hum
%
Delta-T
°C
Wind Press
QNH
hPa
Press
MSL
hPa
Rain since
9am
mm
Dir  Spd
km/h
Gust
km/h
Spd
kts
Gust
kts
25/11:00am 21.7 18.9 13.1 58 4.9 ESE 20 30 11 16 1018.7 1018.6 0.0
25/10:30am 21.8 17.9 12.1 54 5.5 ESE 24 32 13 17 1018.8 1018.7 0.0
25/10:00am 21.2 16.7 11.5 54 5.4 ESE 26 33 14 18 1018.8 1018.7 0.0
25/09:30am 21.2 17.1 11.5 54 5.4 ESE 24 37 13 20 1018.7 1018.6 0.0
25/09:00am 20.8 17.7 12.2 58 4.8 ESE 20 28 11 15 1018.7 1018.6 0.0
25/08:30am 19.3 18.0 13.7 70 3.2 SE 13 17 7 9 1018.4 1018.3 0.0
25/08:00am 18.4 18.1 15.5 83 1.7 SE 11 15 6 8 1017.9 1017.8 0.0
25/07:30am 16.5 17.7 15.9 96 0.4 SE 4 7 2 4 1017.4 1017.4 0.0
25/07:00am 15.3 16.9 14.8 97 0.3 CALM 0 0 0 0 1017.1 1017.1 0.0
25/06:30am 15.0 16.4 14.5 97 0.3 CALM 0 6 0 3 1016.6 1016.6 0.0
25/06:00am 15.5 17.1 15.0 97 0.3 CALM 0 0 0 0 1016.2 1016.2 0.0
25/05:30am 15.9 16.5 15.4 97 0.3 ENE 6 7 3 4 1015.8 1015.8 0.0
25/05:00am 16.4 18.0 15.9 97 0.3 SSE 2 7 1 4 1015.6 1015.6 0.0
25/04:30am 16.8 17.2 16.3 97 0.3 SSW 9 11 5 6 1015.4 1015.4 0.0
25/04:21am 16.9 17.9 16.4 97 0.3 SW 6 9 3 5 1015.4 1015.4 0.0
25/04:00am 16.7 18.0 16.2 97 0.3 SSW 4 7 2 4 1015.4 1015.4 0.0
25/03:40am 17.3 19.6 16.8 97 0.3 CALM 0 0 0 0 1015.3 1015.3 0.0
25/03:30am 17.6 20.0 17.1 97 0.3 CALM 0 0 0 0 1015.2 1015.2 0.0
25/03:29am 17.5 19.9 17.0 97 0.3 CALM 0 0 0 0 1015.2 1015.2 0.0
25/03:12am 17.8 20.4 17.5 98 0.2 CALM 0 0 0 0 1015.2 1015.2 0.0
25/03:00am 17.4 19.8 16.9 97 0.3 CALM 0 0 0 0 1015.2 1015.2 0.0
25/02:54am 17.3 19.6 16.7 96 0.4 CALM 0 0 0 0 1015.2 1015.2 0.0
25/02:30am 18.6 21.5 18.1 97 0.3 CALM 0 0 0 0 1015.2 1015.2 0.0
25/02:03am 18.0 20.6 17.4 96 0.4 CALM 0 0 0 0 1015.3 1015.3 0.0
25/02:00am 19.1 22.2 18.6 97 0.3 CALM 0 0 0 0 1015.2 1015.2 0.0
25/01:30am 19.0 20.6 18.3 96 0.4 SSW 7 11 4 6 1015.4 1015.4 0.0
25/01:03am 19.3 21.3 18.8 97 0.3 SSW 6 9 3 5 1015.6 1015.6 0.0
25/01:00am 19.5 22.4 19.0 97 0.3 SSW 2 7 1 4 1015.6 1015.6 0.0
25/12:44am 19.6 22.1 19.1 97 0.3 SW 4 9 2 5 1015.7 1015.7 0.0
25/12:37am 19.6 21.6 19.1 97 0.3 SSW 7 11 4 6 1015.7 1015.7 0.0
25/12:30am 19.8 21.5 19.3 97 0.3 SSW 9 11 5 6 1015.7 1015.7 0.0
25/12:00am 20.0 21.8 19.5 97 0.3 SSW 9 13 5 7 1015.8 1015.8 0.0
 
Date/Time
EST
Temp
°C
App
Temp
°C
Dew
Point
°C
Rel
Hum
%
Delta-T
°C
Wind Press
QNH
hPa
Press
MSL
hPa
Rain since
9am
mm
Dir  Spd
km/h
Gust
km/h
Spd
kts
Gust
kts
24/11:30pm 19.9 21.9 19.2 96 0.4 SSW 7 9 4 5 1016.1 1016.1 0.0
24/11:00pm 20.6 23.9 19.9 96 0.4 SSE 2 7 1 4 1016.1 1016.1 0.0
24/10:58pm 20.5 23.4 19.8 96 0.4 SSE 4 9 2 5 1016.1 1016.1 0.0
24/10:52pm 20.6 22.9 19.9 96 0.4 SSE 7 9 4 5 1016.1 1016.1 0.0
24/10:38pm 21.2 23.9 20.7 97 0.3 SSE 7 9 4 5 1016.1 1016.1 0.0
24/10:30pm 21.2 24.1 20.7 97 0.3 SSE 6 9 3 5 1016.1 1016.1 0.0
24/10:27pm 21.1 24.0 20.6 97 0.3 S 6 9 3 5 1016.1 1016.1 0.0
24/10:07pm 20.6 22.9 19.8 95 0.5 SSW 7 11 4 6 1016.0 1016.0 0.0
24/10:01pm 20.7 23.9 19.7 94 0.6 E 2 11 1 6 1016.0 1016.0 0.0
24/10:00pm 20.6 23.7 19.6 94 0.6 ENE 2 9 1 5 1015.9 1015.9 0.0
24/09:30pm 21.4 25.2 20.2 93 0.8 CALM 0 0 0 0 1015.7 1015.7 0.0
24/09:17pm 21.6 25.5 20.4 93 0.8 CALM 0 0 0 0 1015.7 1015.7 0.0
24/09:00pm 21.9 26.0 20.7 93 0.8 CALM 0 0 0 0 1015.6 1015.6 0.0
24/08:30pm 22.8 27.2 21.4 92 0.9 CALM 0 0 0 0 1015.3 1015.3 0.0
24/08:00pm 23.0 26.1 21.5 91 1.0 NE 7 13 4 7 1015.1 1015.1 0.0
24/07:30pm 23.8 26.7 21.7 88 1.4 NW 9 9 5 5 1014.7 1014.7 0.0
24/07:00pm 24.5 27.4 21.8 85 1.8 NW 9 13 5 7 1014.3 1014.3 0.0
24/06:30pm 24.7 27.1 21.6 83 2.1 NNW 11 17 6 9 1014.0 1014.0 0.0
24/06:00pm 24.7 27.4 21.4 82 2.2 N 9 17 5 9 1013.6 1013.6 0.0
24/05:30pm 25.3 27.5 21.2 78 2.7 NW 11 17 6 9 1013.2 1013.2 0.0
24/05:00pm 26.1 27.2 21.3 75 3.2 NNW 17 24 9 13 1012.7 1012.7 0.0
24/04:30pm 27.6 28.1 20.9 67 4.4 NNW 19 26 10 14 1012.2 1012.2 0.0
24/04:00pm 28.5 29.7 21.5 66 4.7 NNW 17 24 9 13 1011.9 1011.9 0.0
24/03:30pm 29.2 31.9 22.2 66 4.7 NE 11 15 6 8 1011.6 1011.6 0.0
24/03:00pm 30.6 32.2 19.9 52 7.0 NW 11 17 6 9 1011.5 1011.5 0.0
24/02:30pm 30.9 31.8 19.3 50 7.6 WNW 13 17 7 9 1011.6 1011.6 0.0
24/02:00pm 30.9 31.0 19.9 52 7.3 NNW 19 24 10 13 1011.8 1011.8 0.0
24/01:30pm 30.4 31.0 20.3 54 6.7 NW 17 24 9 13 1012.2 1012.2 0.0
24/01:00pm 30.4 31.7 20.9 57 6.3 NNW 15 24 8 13 1012.7 1012.7 0.0
24/12:30pm 30.2 32.2 20.7 56 6.3 N 11 17 6 9 1013.2 1013.2 0.0
24/12:00pm 29.5 32.5 22.0 64 5.1 NNW 9 17 5 9 1013.9 1013.9 0.0
24/11:30am 28.4 30.5 20.9 64 5.0 NNW 11 19 6 10 1014.6 1014.6 0.0
24/11:00am 27.7 30.7 22.0 71 3.8 NNW 9 13 5 7 1015.0 1015.0 0.0
24/10:30am 26.4 29.6 21.6 75 3.2 WNW 7 13 4 7 1015.3 1015.3 0.0
24/10:00am 26.0 29.7 22.5 81 2.4 NNE 7 9 4 5 1015.4 1015.4 0.0
24/09:30am 24.3 28.0 22.2 88 1.4 NNE 6 9 3 5 1015.6 1015.6 0.0
24/09:00am 22.8 26.1 21.4 92 0.9 N 6 9 3 5 1015.7 1015.7 0.0
24/08:30am 21.5 24.9 21.0 97 0.3 NNW 4 7 2 4 1015.3 1015.3 0.0
24/08:00am 19.7 23.1 19.4 98 0.2 CALM 0 0 0 0 1015.3 1015.3 0.0
24/07:52am 19.6 23.0 19.4 99 0.1 CALM 0 0 0 0 1015.2 1015.2 0.0
24/07:30am 19.2 21.7 19.0 99 0.1 WNW 4 7 2 4 1015.1 1015.1 0.0
24/07:24am 19.3 22.2 19.1 99 0.1 W 2 6 1 3 1015.1 1015.1 0.0
24/07:00am 18.6 21.5 18.3 98 0.2 CALM 0 0 0 0 1014.6 1014.6 0.0
24/06:30am 18.6 21.5 18.3 98 0.2 CALM 0 0 0 0 1014.2 1014.2 0.0
24/06:00am 18.5 21.4 18.2 98 0.2 CALM 0 0 0 0 1013.8 1013.8 0.0
24/05:30am 18.1 20.8 17.8 98 0.2 CALM 0 0 0 0 1013.5 1013.5 0.0
24/05:00am 18.1 20.8 17.8 98 0.2 CALM 0 0 0 0 1013.3 1013.3 0.0
24/04:30am 18.5 20.3 18.2 98 0.2 S 6 7 3 4 1013.2 1013.2 0.0
24/04:00am 18.5 21.4 18.2 98 0.2 CALM 0 0 0 0 1013.1 1013.1 0.0
24/03:30am 19.1 21.9 18.9 99 0.1 WNW 2 6 1 3 1013.3 1013.3 0.0
24/03:00am 18.7 21.3 18.4 98 0.2 NNW 2 6 1 3 1013.3 1013.3 0.0
24/02:31am 18.7 20.4 18.4 98 0.2 N 7 11 4 6 1013.0 1013.0 0.0
24/02:30am 18.6 20.4 18.3 98 0.2 N 6 11 3 6 1013.0 1013.0 0.0
24/02:00am 18.9 21.9 18.4 97 0.3 CALM 0 0 0 0 1013.7 1013.7 0.0
24/01:30am 19.3 22.5 18.8 97 0.3 CALM 0 0 0 0 1014.1 1014.1 0.0
24/01:00am 19.5 22.8 19.0 97 0.3 CALM 0 0 0 0 1014.3 1014.3 0.0
24/12:58am 19.5 22.8 19.0 97 0.3 CALM 0 0 0 0 1014.4 1014.4 0.0
24/12:42am 19.4 21.5 18.9 97 0.3 W 6 9 3 5 1014.5 1014.5 0.0
24/12:30am 19.4 22.5 18.7 96 0.4 CALM 0 0 0 0 1014.5 1014.5 0.0
24/12:00am 19.9 23.2 19.2 96 0.4 CALM 0 0 0 0 1014.6 1014.6 0.0
 
Date/Time
EST
Temp
°C
App
Temp
°C
Dew
Point
°C
Rel
Hum
%
Delta-T
°C
Wind Press
QNH
hPa
Press
MSL
hPa
Rain since
9am
mm
Dir  Spd
km/h
Gust
km/h
Spd
kts
Gust
kts
23/11:30pm 20.5 24.2 20.0 97 0.3 CALM 0 0 0 0 1014.8 1014.8 0.0
23/11:16pm 20.7 24.4 20.0 96 0.4 CALM 0 0 0 0 1014.8 1014.8 0.0
23/11:00pm 20.7 24.4 20.0 96 0.4 CALM 0 0 0 0 1014.9 1014.9 0.0
23/10:30pm 20.8 23.9 20.3 97 0.3 S 4 6 2 3 1014.7 1014.7 0.0
23/10:00pm 20.8 23.0 20.3 97 0.3 SSW 9 11 5 6 1014.6 1014.6 0.0
23/09:30pm 20.8 23.4 20.1 96 0.4 SSW 6 7 3 4 1014.4 1014.4 0.0
23/09:29pm 20.8 23.4 20.1 96 0.4 SSW 6 7 3 4 1014.4 1014.4 0.0
23/09:07pm 20.7 23.2 19.9 95 0.5 SSW 6 7 3 4 1014.2 1014.2 0.0
23/09:00pm 20.9 23.5 20.1 95 0.5 SSW 6 7 3 4 1014.1 1014.1 0.0
23/08:30pm 21.3 24.1 20.5 95 0.5 SSW 6 9 3 5 1014.1 1014.1 0.0
23/08:00pm 21.7 24.4 20.7 94 0.6 SSW 7 9 4 5 1014.0 1014.0 0.0
23/07:30pm 22.0 25.0 20.8 93 0.8 SSW 6 9 3 5 1013.7 1013.7 0.0
23/07:00pm 22.1 24.9 20.4 90 1.1 E 6 7 3 4 1013.4 1013.4 0.0
23/06:30pm 22.7 25.2 21.0 90 1.1 SE 9 13 5 7 1012.9 1012.9 0.0
23/06:00pm 23.4 25.9 21.1 87 1.5 SSE 9 15 5 8 1012.6 1012.6 0.0
23/05:30pm 24.1 26.5 20.8 82 2.2 ESE 9 11 5 6 1012.1 1012.1 0.0
23/05:00pm 25.5 28.5 21.2 77 2.8 ENE 7 9 4 5 1011.8 1011.8 0.0
23/04:30pm 25.3 28.0 21.4 79 2.6 ESE 9 13 5 7 1011.7 1011.7 0.0
23/04:00pm 25.8 27.9 21.0 75 3.2 E 11 17 6 9 1011.6 1011.6 0.0
23/03:30pm 26.2 27.6 21.0 73 3.4 E 15 20 8 11 1011.5 1011.5 0.0
23/03:00pm 26.1 26.5 20.7 72 3.6 E 19 24 10 13 1011.7 1011.7 0.0
23/02:30pm 25.8 26.6 20.6 73 3.4 ENE 17 20 9 11 1011.8 1011.8 0.0
23/02:00pm 27.4 29.2 21.2 69 4.1 E 13 20 7 11 1012.1 1012.1 0.0
23/01:30pm 26.7 28.6 20.5 69 4.1 ESE 11 15 6 8 1012.4 1012.4 0.0
23/01:00pm 26.2 28.0 20.3 70 3.9 E 11 17 6 9 1012.9 1012.9 0.0
23/12:30pm 26.5 28.7 20.3 68 4.1 ESE 9 19 5 10 1013.5 1013.5 0.0
23/12:00pm 26.2 28.3 19.3 65 4.4 N 7 9 4 5 1014.1 1014.1 0.0
23/11:30am 26.5 28.5 19.1 64 4.8 N 7 11 4 6 1014.5 1014.5 0.0
23/11:00am 26.3 28.6 19.4 66 4.4 ENE 6 11 3 6 1015.0 1015.0 0.0
23/10:30am 24.7 28.2 19.5 73 3.3 CALM 0 0 0 0 1015.4 1015.4 0.0
23/10:00am 24.5 28.0 19.6 74 3.2 CALM 0 6 0 3 1015.7 1015.7 0.0
23/09:30am 24.1 26.9 19.6 76 2.9 NW 4 6 2 3 1015.8 1015.8 0.0
23/09:00am 23.8 26.2 20.9 84 1.9 SW 9 11 5 6 1015.7 1015.7 0.0
23/08:30am 22.7 25.2 21.0 90 1.1 SW 9 13 5 7 1015.5 1015.5 0.0
23/08:00am 21.0 23.7 20.2 95 0.5 SSW 6 9 3 5 1015.3 1015.3 0.0
23/07:30am 20.0 22.7 19.5 97 0.3 WNW 4 6 2 3 1015.3 1015.3 0.0
23/07:00am 19.6 22.5 19.1 97 0.3 NNE 2 7 1 4 1015.0 1015.0 0.0
23/06:30am 19.7 23.0 19.2 97 0.3 CALM 0 0 0 0 1014.6 1014.6 0.0
23/06:00am 19.7 23.0 19.2 97 0.3 CALM 0 0 0 0 1014.4 1014.4 0.0
23/05:30am 19.7 23.0 19.2 97 0.3 CALM 0 0 0 0 1013.9 1013.9 0.0
23/05:28am 19.7 23.0 19.2 97 0.3 CALM 0 6 0 3 1013.9 1013.9 0.0
23/05:00am 19.5 22.8 19.0 97 0.3 CALM 0 0 0 0 1014.0 1014.0 0.0
23/04:30am 19.6 22.9 19.1 97 0.3 CALM 0 0 0 0 1013.9 1013.9 0.0
23/04:00am 19.5 22.8 19.0 97 0.3 CALM 0 0 0 0 1013.8 1013.8 0.0
23/03:30am 19.1 22.2 18.6 97 0.3 CALM 0 0 0 0 1014.0 1014.0 0.0
23/03:23am 19.0 22.0 18.5 97 0.3 CALM 0 0 0 0 1014.1 1014.1 0.0
23/03:00am 18.7 20.4 18.0 96 0.4 SSW 6 7 3 4 1014.1 1014.1 0.0
23/02:59am 18.8 20.5 18.1 96 0.4 SSW 6 7 3 4 1014.1 1014.1 0.0
23/02:30am 19.2 22.2 18.5 96 0.4 CALM 0 0 0 0 1014.1 1014.1 0.0
23/02:25am 19.2 22.2 18.5 96 0.4 CALM 0 0 0 0 1014.2 1014.2 0.0
23/02:21am 19.3 22.4 18.6 96 0.4 CALM 0 0 0 0 1014.2 1014.2 0.0
23/02:00am 19.8 23.1 19.1 96 0.4 CALM 0 0 0 0 1014.1 1014.1 0.0
23/01:30am 20.1 23.5 19.4 96 0.4 CALM 0 6 0 3 1014.6 1014.6 0.0
23/01:00am 20.1 23.2 19.4 96 0.4 S 2 6 1 3 1014.7 1014.7 0.0
23/12:30am 20.1 23.6 19.6 97 0.3 CALM 0 4 0 2 1014.7 1014.7 0.0
23/12:00am 19.9 21.6 19.4 97 0.3 SSW 9 11 5 6 1014.7 1014.7 0.0
 
Date/Time
EST
Temp
°C
App
Temp
°C
Dew
Point
°C
Rel
Hum
%
Delta-T
°C
Wind Press
QNH
hPa
Press
MSL
hPa
Rain since
9am
mm
Dir  Spd
km/h
Gust
km/h
Spd
kts
Gust
kts
22/11:30pm 19.6 21.2 19.1 97 0.3 SSW 9 11 5 6 1015.0 1015.0 0.0
22/11:00pm 19.3 20.8 18.8 97 0.3 SSW 9 11 5 6 1015.0 1015.0 0.0
22/10:30pm 19.4 22.6 18.9 97 0.3 CALM 0 0 0 0 1015.0 1015.0 0.0
22/10:00pm 18.7 21.5 18.0 96 0.4 CALM 0 0 0 0 1015.1 1015.1 0.0
22/09:53pm 19.0 22.0 18.5 97 0.3 CALM 0 0 0 0 1015.1 1015.1 0.0
22/09:30pm 18.6 21.4 17.9 96 0.4 CALM 0 6 0 3 1014.9 1014.9 0.0
22/09:00pm 19.4 22.5 18.6 95 0.5 CALM 0 0 0 0 1014.8 1014.8 0.0
22/08:30pm 20.0 22.6 19.2 95 0.5 SW 4 6 2 3 1014.6 1014.6 0.0
22/08:00pm 20.0 21.9 19.0 94 0.6 SSW 7 9 4 5 1014.3 1014.3 0.0
22/07:30pm 20.1 22.2 18.9 93 0.8 WSW 6 7 3 4 1013.9 1013.9 0.0
22/07:00pm 20.9 23.3 19.6 92 0.8 W 6 7 3 4 1013.4 1013.4 0.0
22/06:30pm 21.7 25.2 19.6 88 1.3 CALM 0 0 0 0 1013.4 1013.4 0.0
22/06:00pm 22.3 24.8 19.8 86 1.6 WNW 6 7 3 4 1013.1 1013.1 0.0
22/05:30pm 23.7 26.0 19.8 79 2.5 N 7 11 4 6 1012.5 1012.5 0.0
22/05:00pm 25.2 27.9 20.7 76 3.0 ENE 7 9 4 5 1012.4 1012.4 0.0
22/04:30pm 25.1 26.5 20.4 75 3.1 SE 13 17 7 9 1012.3 1012.3 0.0
22/04:00pm 27.6 29.3 20.2 64 4.9 NE 11 15 6 8 1012.0 1012.0 0.0
22/03:30pm 27.4 28.9 19.7 63 5.0 NNE 11 15 6 8 1011.9 1011.9 0.0
22/03:00pm 27.7 28.7 17.8 54 6.3 N 9 13 5 7 1011.9 1011.9 0.0
22/02:30pm 28.6 29.7 18.1 53 6.7 NW 9 11 5 6 1012.1 1012.1 0.0
22/02:00pm 28.4 29.2 18.2 54 6.5 N 11 15 6 8 1012.4 1012.4 0.0
22/01:30pm 27.9 28.7 17.4 52 6.6 NNW 9 15 5 8 1012.5 1012.5 0.0
22/01:00pm 28.1 29.7 18.2 55 6.3 NNE 7 15 4 8 1013.0 1013.0 0.0
22/12:30pm 27.2 27.9 17.1 54 6.3 NNW 9 15 5 8 1013.5 1013.5 0.0
22/12:00pm 26.9 28.3 17.7 57 5.8 N 7 11 4 6 1014.1 1014.1 0.0

Other Formats:

Comma delimited format used in spreadsheet applications
http://www.bom.gov.au/fwo/IDQ60801/IDQ60801.94365.axf

JavaScript Object Notation format (JSON) in row-major order
http://www.bom.gov.au/fwo/IDQ60801/IDQ60801.94365.json